Time;durP1;ratioP1;P1;durP2;ratioP2;P2;SDS_P1;SDS_P2;PMS_P1;PMS_P2;Temp;Humidity;BMP_temperature;BMP_pressure;BME280_temperature;BME280_humidity;BME280_pressure;Samples;Min_cycle;Max_cycle;Signal;HPM_P1;HPM_P2
2023/07/30 00:01:19;;;;;;;9.25;5.22;;;;;;;;;;5070015;28;20033;-74
2023/07/30 00:03:45;;;;;;;9.48;4.65;;;;;;;;;;5071385;28;20099;-73
2023/07/30 00:06:11;;;;;;;8.88;5.18;;;;;;;;;;5070998;28;20032;-74
2023/07/30 00:08:37;;;;;;;10.90;5.82;;;;;;;;;;5072013;28;20060;-72
2023/07/30 00:11:03;;;;;;;11.05;5.15;;;;;;;;;;5072058;28;20024;-73
2023/07/30 00:13:29;;;;;;;10.70;5.57;;;;;;;;;;5072454;28;20067;-73
2023/07/30 00:15:55;;;;;;;10.40;5.50;;;;;;;;;;5077157;28;20067;-73
2023/07/30 00:18:21;;;;;;;17.10;6.32;;;;;;;;;;5071964;28;20021;-73
2023/07/30 00:20:47;;;;;;;8.82;4.93;;;;;;;;;;5071852;28;20024;-72
2023/07/30 00:23:13;;;;;;;12.00;5.38;;;;;;;;;;5071574;28;20490;-73
2023/07/30 00:25:39;;;;;;;9.50;5.15;;;;;;;;;;5071906;28;20024;-73
2023/07/30 00:28:05;;;;;;;10.27;5.20;;;;;;;;;;5071764;28;20370;-73
2023/07/30 00:30:31;;;;;;;12.68;5.30;;;;;;;;;;5071748;28;20024;-73
2023/07/30 00:32:57;;;;;;;8.65;4.55;;;;;;;;;;5071434;28;20421;-73
2023/07/30 00:35:23;;;;;;;7.40;4.03;;;;;;;;;;5072661;28;20020;-73
2023/07/30 00:37:49;;;;;;;9.07;4.55;;;;;;;;;;5073925;28;20013;-74
2023/07/30 00:40:15;;;;;;;7.28;4.55;;;;;;;;;;5074027;28;20035;-73
2023/07/30 00:42:41;;;;;;;7.82;4.65;;;;;;;;;;5074064;28;20029;-73
2023/07/30 00:45:07;;;;;;;6.53;3.95;;;;;;;;;;5073889;28;20448;-73
2023/07/30 00:47:33;;;;;;;7.93;4.32;;;;;;;;;;5072395;28;20029;-73
2023/07/30 00:49:59;;;;;;;8.48;4.15;;;;;;;;;;5073678;28;20036;-73
2023/07/30 00:52:25;;;;;;;6.40;4.03;;;;;;;;;;5073683;28;20024;-73
2023/07/30 00:54:52;;;;;;;5.95;4.18;;;;;;;;;;5073646;28;20020;-73
2023/07/30 00:57:19;;;;;;;7.90;4.10;;;;;;;;;;5074149;28;20025;-74
2023/07/30 00:59:45;;;;;;;6.95;4.15;;;;;;;;;;5073634;28;20100;-72
2023/07/30 01:02:11;;;;;;;9.35;5.70;;;;;;;;;;5073185;28;20027;-73
2023/07/30 01:04:39;;;;;;;8.50;4.53;;;;;;;;;;5073472;28;20044;-72
2023/07/30 01:07:05;;;;;;;12.38;4.07;;;;;;;;;;5075890;28;20025;-72
2023/07/30 01:09:31;;;;;;;5.28;3.80;;;;;;;;;;5073103;28;20056;-73
2023/07/30 01:11:58;;;;;;;7.28;3.70;;;;;;;;;;5070480;28;20033;-73
2023/07/30 01:14:26;;;;;;;8.00;3.90;;;;;;;;;;5072131;28;20031;-73
2023/07/30 01:16:52;;;;;;;6.97;3.97;;;;;;;;;;5072563;28;20014;-73
2023/07/30 01:19:18;;;;;;;9.55;3.85;;;;;;;;;;5076388;28;20100;-73
2023/07/30 01:21:44;;;;;;;7.30;3.90;;;;;;;;;;5074317;28;20055;-73
2023/07/30 01:24:10;;;;;;;5.40;3.60;;;;;;;;;;5075927;28;20024;-73
2023/07/30 01:26:46;;;;;;;10.73;3.38;;;;;;;;;;5090688;28;20082;-74
2023/07/30 01:29:22;;;;;;;6.50;3.60;;;;;;;;;;5090026;28;20025;-74
2023/07/30 01:31:51;;;;;;;11.20;3.90;;;;;;;;;;5091444;28;20021;-73
2023/07/30 01:34:18;;;;;;;4.45;3.00;;;;;;;;;;5077654;28;20096;-74
2023/07/30 01:36:44;;;;;;;3.50;2.83;;;;;;;;;;5074846;28;20055;-72
2023/07/30 01:39:10;;;;;;;12.10;4.18;;;;;;;;;;5074789;28;20501;-72
2023/07/30 01:41:36;;;;;;;7.93;4.07;;;;;;;;;;5074680;28;20040;-72
2023/07/30 01:44:02;;;;;;;8.88;4.50;;;;;;;;;;5074591;28;20032;-72
2023/07/30 01:46:28;;;;;;;4.88;3.80;;;;;;;;;;5074670;28;20027;-72
2023/07/30 01:48:54;;;;;;;6.90;3.75;;;;;;;;;;5074561;28;20024;-72
2023/07/30 01:51:20;;;;;;;11.13;5.70;;;;;;;;;;5074644;28;20027;-72
2023/07/30 01:53:46;;;;;;;13.13;9.45;;;;;;;;;;5074147;28;20382;-74
2023/07/30 01:56:12;;;;;;;8.10;5.30;;;;;;;;;;5075687;28;20107;-73
2023/07/30 01:58:38;;;;;;;8.50;4.93;;;;;;;;;;5077738;28;20025;-73
2023/07/30 02:01:04;;;;;;;7.70;4.20;;;;;;;;;;5075972;28;20020;-74
2023/07/30 02:03:30;;;;;;;9.10;4.38;;;;;;;;;;5082850;28;20474;-74
2023/07/30 02:05:56;;;;;;;7.40;4.57;;;;;;;;;;5080420;28;20467;-73
2023/07/30 02:08:22;;;;;;;6.05;5.10;;;;;;;;;;5078317;28;20313;-74
2023/07/30 02:10:55;;;;;;;11.90;4.50;;;;;;;;;;5069431;28;20029;-74
2023/07/30 02:13:21;;;;;;;9.98;4.60;;;;;;;;;;5053538;28;20017;-72
2023/07/30 02:15:47;;;;;;;13.27;5.60;;;;;;;;;;5056493;28;20455;-74
2023/07/30 02:18:13;;;;;;;7.85;5.57;;;;;;;;;;5055553;28;20025;-74
2023/07/30 02:20:39;;;;;;;6.93;4.97;;;;;;;;;;5055509;28;20033;-74
2023/07/30 02:23:05;;;;;;;11.55;6.53;;;;;;;;;;5055076;28;20032;-73
2023/07/30 02:25:31;;;;;;;8.57;5.75;;;;;;;;;;5056807;28;20032;-75
2023/07/30 02:27:58;;;;;;;8.82;6.03;;;;;;;;;;5052458;28;20166;-73
2023/07/30 02:30:24;;;;;;;8.68;5.38;;;;;;;;;;5052974;28;20032;-73
2023/07/30 02:32:50;;;;;;;10.30;6.35;;;;;;;;;;5053115;28;20025;-73
2023/07/30 02:35:16;;;;;;;15.98;7.43;;;;;;;;;;5053441;28;20035;-77
2023/07/30 02:37:42;;;;;;;11.30;6.53;;;;;;;;;;5053513;28;20075;-72
2023/07/30 02:40:08;;;;;;;10.48;6.75;;;;;;;;;;5053444;28;20098;-72
2023/07/30 02:42:34;;;;;;;13.10;8.52;;;;;;;;;;5052846;28;20475;-72
2023/07/30 02:45:00;;;;;;;13.30;8.68;;;;;;;;;;5053725;28;20028;-73
2023/07/30 02:47:26;;;;;;;11.68;8.40;;;;;;;;;;5054481;28;20061;-74
2023/07/30 02:49:52;;;;;;;12.13;8.18;;;;;;;;;;5054967;28;20075;-73
2023/07/30 02:52:18;;;;;;;18.15;10.60;;;;;;;;;;5053960;28;20387;-74
2023/07/30 02:54:44;;;;;;;18.08;9.98;;;;;;;;;;5054343;28;20059;-73
2023/07/30 02:57:11;;;;;;;19.63;10.85;;;;;;;;;;5053206;28;20025;-72
2023/07/30 02:59:37;;;;;;;17.77;10.70;;;;;;;;;;5053308;28;20033;-71
2023/07/30 03:02:07;;;;;;;16.65;10.50;;;;;;;;;;5052412;28;20497;-71
2023/07/30 03:04:33;;;;;;;16.17;10.82;;;;;;;;;;5052500;28;20025;-75
2023/07/30 03:06:59;;;;;;;17.58;10.80;;;;;;;;;;5052845;28;20032;-74
2023/07/30 03:09:25;;;;;;;17.23;10.82;;;;;;;;;;5053234;28;20345;-73
2023/07/30 03:11:51;;;;;;;15.20;9.93;;;;;;;;;;5052670;28;20027;-75
2023/07/30 03:14:20;;;;;;;17.75;10.90;;;;;;;;;;5052256;28;20036;-73
2023/07/30 03:16:46;;;;;;;23.38;11.40;;;;;;;;;;5053124;28;20097;-73
2023/07/30 03:19:12;;;;;;;16.15;11.43;;;;;;;;;;5052746;28;20021;-74
2023/07/30 03:21:38;;;;;;;21.48;11.77;;;;;;;;;;5054629;28;20025;-74
2023/07/30 03:24:04;;;;;;;19.25;11.10;;;;;;;;;;5055785;28;20124;-72
2023/07/30 03:26:30;;;;;;;18.92;11.68;;;;;;;;;;5061285;28;20433;-71
2023/07/30 03:28:56;;;;;;;14.48;10.65;;;;;;;;;;5059073;28;20094;-72
2023/07/30 03:31:22;;;;;;;17.52;12.20;;;;;;;;;;5053007;28;20029;-72
2023/07/30 03:33:48;;;;;;;17.50;11.43;;;;;;;;;;5052385;28;20017;-72
2023/07/30 03:36:15;;;;;;;16.23;11.63;;;;;;;;;;5052822;28;20021;-72
2023/07/30 03:38:41;;;;;;;17.45;11.48;;;;;;;;;;5052556;28;20051;-73
2023/07/30 03:41:07;;;;;;;16.50;11.65;;;;;;;;;;5052318;28;20037;-72
2023/07/30 03:43:33;;;;;;;18.52;11.60;;;;;;;;;;5052413;28;20021;-72
2023/07/30 03:45:59;;;;;;;19.70;12.85;;;;;;;;;;5052497;28;20033;-72
2023/07/30 03:48:25;;;;;;;20.73;12.27;;;;;;;;;;5052276;28;20028;-71
2023/07/30 03:50:52;;;;;;;17.00;11.02;;;;;;;;;;5052287;28;20056;-74
2023/07/30 03:53:18;;;;;;;18.67;11.43;;;;;;;;;;5052361;28;20029;-73
2023/07/30 03:55:44;;;;;;;15.25;11.00;;;;;;;;;;5052532;28;20092;-73
2023/07/30 03:58:10;;;;;;;21.15;11.20;;;;;;;;;;5052445;28;20390;-72
2023/07/30 04:00:36;;;;;;;16.80;11.15;;;;;;;;;;5052183;28;20028;-73
2023/07/30 04:03:02;;;;;;;18.00;10.75;;;;;;;;;;5051853;28;20390;-72
2023/07/30 04:05:28;;;;;;;18.75;10.68;;;;;;;;;;5052026;28;20112;-72
2023/07/30 04:07:54;;;;;;;17.35;10.80;;;;;;;;;;5052292;28;20025;-72
2023/07/30 04:10:20;;;;;;;21.92;10.82;;;;;;;;;;5051853;28;20028;-73
2023/07/30 04:12:46;;;;;;;18.05;10.52;;;;;;;;;;5051711;28;20105;-73
2023/07/30 04:15:12;;;;;;;18.27;11.38;;;;;;;;;;5051957;28;20100;-73
2023/07/30 04:17:38;;;;;;;20.27;11.50;;;;;;;;;;5051753;28;20025;-73
2023/07/30 04:20:05;;;;;;;14.93;10.10;;;;;;;;;;5051779;28;20094;-72
2023/07/30 04:22:31;;;;;;;16.55;10.65;;;;;;;;;;5051437;28;20039;-72
2023/07/30 04:24:57;;;;;;;18.60;10.95;;;;;;;;;;5051736;28;20037;-72
2023/07/30 04:27:23;;;;;;;25.23;12.80;;;;;;;;;;5060718;28;20036;-75
2023/07/30 04:29:49;;;;;;;20.25;11.32;;;;;;;;;;5071124;28;20044;-72
2023/07/30 04:32:15;;;;;;;17.27;11.57;;;;;;;;;;5070973;28;20031;-72
2023/07/30 04:34:41;;;;;;;20.85;12.52;;;;;;;;;;5072746;28;20457;-72
2023/07/30 04:37:07;;;;;;;19.98;10.95;;;;;;;;;;5072368;28;20036;-76
2023/07/30 04:39:33;;;;;;;19.75;10.40;;;;;;;;;;5073574;28;20021;-72
2023/07/30 04:41:59;;;;;;;21.20;11.00;;;;;;;;;;5071771;28;20041;-71
2023/07/30 04:44:25;;;;;;;22.50;11.70;;;;;;;;;;5072138;28;20028;-71
2023/07/30 04:46:51;;;;;;;27.58;13.00;;;;;;;;;;5072083;28;20432;-72
2023/07/30 04:49:17;;;;;;;24.65;10.77;;;;;;;;;;5071574;28;20111;-74
2023/07/30 04:51:43;;;;;;;27.13;11.20;;;;;;;;;;5071728;28;20016;-72
2023/07/30 04:54:09;;;;;;;21.67;11.05;;;;;;;;;;5075339;28;20025;-72
2023/07/30 04:56:35;;;;;;;22.45;10.63;;;;;;;;;;5075197;28;20035;-73
2023/07/30 04:59:01;;;;;;;22.40;11.07;;;;;;;;;;5075381;28;20035;-73
2023/07/30 05:01:27;;;;;;;20.92;10.00;;;;;;;;;;5072819;28;20097;-72
2023/07/30 05:03:54;;;;;;;26.08;11.32;;;;;;;;;;5073517;28;20099;-73
2023/07/30 05:06:20;;;;;;;20.75;9.90;;;;;;;;;;5075029;28;20024;-74
2023/07/30 05:08:46;;;;;;;21.05;10.07;;;;;;;;;;5075119;28;20030;-73
2023/07/30 05:11:12;;;;;;;18.42;9.85;;;;;;;;;;5075232;28;20402;-72
2023/07/30 05:13:38;;;;;;;22.65;10.30;;;;;;;;;;5073714;28;20067;-73
2023/07/30 05:16:04;;;;;;;24.48;11.70;;;;;;;;;;5074481;28;20025;-73
2023/07/30 05:18:30;;;;;;;24.25;13.43;;;;;;;;;;5074595;28;20028;-74
2023/07/30 05:20:56;;;;;;;20.02;10.23;;;;;;;;;;5074416;28;20024;-75
2023/07/30 05:23:22;;;;;;;21.85;10.07;;;;;;;;;;5073648;28;20024;-75
2023/07/30 05:25:48;;;;;;;19.27;9.65;;;;;;;;;;5074170;28;20025;-74
2023/07/30 05:28:14;;;;;;;22.40;8.70;;;;;;;;;;5073997;28;20042;-71
2023/07/30 05:30:40;;;;;;;22.05;8.88;;;;;;;;;;5074832;28;20025;-71
2023/07/30 05:33:06;;;;;;;17.17;8.40;;;;;;;;;;5074642;28;20501;-72
2023/07/30 05:35:32;;;;;;;23.60;8.65;;;;;;;;;;5074810;28;20021;-74
2023/07/30 05:37:58;;;;;;;18.27;7.57;;;;;;;;;;5073091;28;20017;-73
2023/07/30 05:40:24;;;;;;;17.08;7.72;;;;;;;;;;5073587;28;20492;-73
2023/07/30 05:42:50;;;;;;;25.27;9.20;;;;;;;;;;5073258;28;20025;-73
2023/07/30 05:45:16;;;;;;;19.88;7.60;;;;;;;;;;5074120;28;20382;-73
2023/07/30 05:47:42;;;;;;;21.95;7.75;;;;;;;;;;5077453;28;20028;-72
2023/07/30 05:50:08;;;;;;;28.02;8.70;;;;;;;;;;5079119;28;20040;-71
2023/07/30 05:52:34;;;;;;;21.30;8.38;;;;;;;;;;5086131;28;20119;-73
2023/07/30 05:55:00;;;;;;;21.42;7.90;;;;;;;;;;5078870;28;20076;-73
2023/07/30 05:57:26;;;;;;;24.48;8.63;;;;;;;;;;5076247;28;20450;-74
2023/07/30 05:59:52;;;;;;;24.55;9.07;;;;;;;;;;5079662;28;20032;-73
2023/07/30 06:02:18;;;;;;;26.70;8.95;;;;;;;;;;5076741;28;20075;-71
2023/07/30 06:04:44;;;;;;;22.92;8.75;;;;;;;;;;5079994;28;20033;-71
2023/07/30 06:07:10;;;;;;;21.55;8.00;;;;;;;;;;5077548;28;20025;-73
2023/07/30 06:09:36;;;;;;;29.48;9.82;;;;;;;;;;5077262;28;20029;-72
2023/07/30 06:12:03;;;;;;;30.17;10.40;;;;;;;;;;5076052;28;20036;-72
2023/07/30 06:14:29;;;;;;;25.17;9.18;;;;;;;;;;5080913;28;20490;-72
2023/07/30 06:16:55;;;;;;;24.48;8.45;;;;;;;;;;5072885;28;20071;-74
2023/07/30 06:19:21;;;;;;;32.28;9.93;;;;;;;;;;5074764;28;20399;-71
2023/07/30 06:21:47;;;;;;;28.25;8.73;;;;;;;;;;5073791;28;20041;-72
2023/07/30 06:24:13;;;;;;;29.00;9.20;;;;;;;;;;5074078;28;20395;-71
2023/07/30 06:26:39;;;;;;;24.83;8.55;;;;;;;;;;5072800;28;20024;-72
2023/07/30 06:29:05;;;;;;;29.80;9.45;;;;;;;;;;5073976;28;20086;-71
2023/07/30 06:31:31;;;;;;;31.25;9.25;;;;;;;;;;5073981;28;20024;-71
2023/07/30 06:33:57;;;;;;;29.05;9.80;;;;;;;;;;5074142;28;20024;-74
2023/07/30 06:36:23;;;;;;;29.58;9.68;;;;;;;;;;5074234;28;20032;-71
2023/07/30 06:38:49;;;;;;;37.10;10.10;;;;;;;;;;5074136;28;20056;-72
2023/07/30 06:41:15;;;;;;;35.50;11.18;;;;;;;;;;5073800;28;20104;-71
2023/07/30 06:43:41;;;;;;;29.80;10.70;;;;;;;;;;5073738;28;20029;-72
2023/07/30 06:46:07;;;;;;;36.50;11.82;;;;;;;;;;5074453;28;20056;-72
2023/07/30 06:48:33;;;;;;;29.13;12.10;;;;;;;;;;5074450;28;20017;-75
2023/07/30 06:50:59;;;;;;;33.60;12.68;;;;;;;;;;5070056;28;20032;-75
2023/07/30 06:53:25;;;;;;;41.03;12.35;;;;;;;;;;5068343;28;20103;-75
2023/07/30 06:55:51;;;;;;;45.42;13.57;;;;;;;;;;5052541;28;20113;-75
2023/07/30 06:58:17;;;;;;;36.10;11.35;;;;;;;;;;5052732;28;20451;-75
2023/07/30 07:00:43;;;;;;;41.78;12.70;;;;;;;;;;5053154;28;20064;-73
2023/07/30 07:03:09;;;;;;;46.97;12.95;;;;;;;;;;5052463;28;20025;-72
2023/07/30 07:05:35;;;;;;;41.40;12.95;;;;;;;;;;5053534;28;20027;-73
2023/07/30 07:08:01;;;;;;;47.90;12.70;;;;;;;;;;5051965;28;20097;-73
2023/07/30 07:10:26;;;;;;;49.50;13.38;;;;;;;;;;5052100;28;20084;-72
2023/07/30 07:12:52;;;;;;;43.97;13.45;;;;;;;;;;5051458;28;20514;-73
2023/07/30 07:15:19;;;;;;;43.47;12.80;;;;;;;;;;5051727;28;20025;-73
2023/07/30 07:17:45;;;;;;;37.72;11.68;;;;;;;;;;5051823;28;20025;-71
2023/07/30 07:20:11;;;;;;;50.83;13.60;;;;;;;;;;5051482;28;20099;-73
2023/07/30 07:22:37;;;;;;;39.33;13.30;;;;;;;;;;5051322;28;20033;-72
2023/07/30 07:25:03;;;;;;;40.33;12.10;;;;;;;;;;5052108;28;20025;-73
2023/07/30 07:27:29;;;;;;;39.67;11.68;;;;;;;;;;5051715;28;20021;-73
2023/07/30 07:29:56;;;;;;;45.85;12.38;;;;;;;;;;5051689;28;20348;-72
2023/07/30 07:32:22;;;;;;;55.03;11.77;;;;;;;;;;5054345;28;20024;-73
2023/07/30 07:34:48;;;;;;;38.50;10.88;;;;;;;;;;5071559;28;20025;-72
2023/07/30 07:37:15;;;;;;;37.35;10.18;;;;;;;;;;5071211;28;20020;-73
2023/07/30 07:39:41;;;;;;;39.00;11.40;;;;;;;;;;5071643;28;20107;-74
2023/07/30 07:42:07;;;;;;;40.10;11.30;;;;;;;;;;5070522;28;20036;-72
2023/07/30 07:44:33;;;;;;;47.30;11.10;;;;;;;;;;5071552;28;20486;-72
2023/07/30 07:46:59;;;;;;;46.17;11.25;;;;;;;;;;5070660;28;20078;-72
2023/07/30 07:49:25;;;;;;;38.97;11.05;;;;;;;;;;5071453;28;20020;-73
2023/07/30 07:51:51;;;;;;;45.33;10.25;;;;;;;;;;5071565;28;20016;-72
2023/07/30 07:54:17;;;;;;;40.97;11.35;;;;;;;;;;5072292;28;20028;-73
2023/07/30 07:56:43;;;;;;;38.85;10.02;;;;;;;;;;5073694;28;20095;-72
2023/07/30 07:59:09;;;;;;;37.08;10.38;;;;;;;;;;5074585;28;20036;-73
2023/07/30 08:01:35;;;;;;;34.13;9.80;;;;;;;;;;5073219;28;20048;-73
2023/07/30 08:04:01;;;;;;;39.67;9.05;;;;;;;;;;5071598;28;20043;-72
2023/07/30 08:06:27;;;;;;;30.13;9.20;;;;;;;;;;5072423;28;20025;-72
2023/07/30 08:08:53;;;;;;;38.60;10.38;;;;;;;;;;5071302;28;20063;-72
2023/07/30 08:11:19;;;;;;;33.13;9.82;;;;;;;;;;5072168;28;20017;-72
2023/07/30 08:13:45;;;;;;;37.75;9.30;;;;;;;;;;5069568;28;20029;-72
2023/07/30 08:16:11;;;;;;;33.40;8.63;;;;;;;;;;5072475;28;20501;-73
2023/07/30 08:18:37;;;;;;;35.92;7.75;;;;;;;;;;5075459;28;20028;-73
2023/07/30 08:21:04;;;;;;;27.85;8.00;;;;;;;;;;5073073;28;20116;-73
2023/07/30 08:23:30;;;;;;;37.83;9.30;;;;;;;;;;5070791;28;20097;-73
2023/07/30 08:25:55;;;;;;;37.45;9.07;;;;;;;;;;5070468;28;20028;-71
2023/07/30 08:28:21;;;;;;;31.30;7.75;;;;;;;;;;5070125;28;20031;-73
2023/07/30 08:30:48;;;;;;;33.42;8.82;;;;;;;;;;5071039;28;20028;-73
2023/07/30 08:33:14;;;;;;;29.85;7.95;;;;;;;;;;5071597;28;20363;-74
2023/07/30 08:35:40;;;;;;;28.25;8.40;;;;;;;;;;5073705;28;20024;-76
2023/07/30 08:38:06;;;;;;;35.55;8.57;;;;;;;;;;5084626;28;20070;-75
2023/07/30 08:40:32;;;;;;;44.38;9.60;;;;;;;;;;5085371;28;20028;-75
2023/07/30 08:42:58;;;;;;;26.70;7.57;;;;;;;;;;5081694;28;20028;-74
2023/07/30 08:45:24;;;;;;;26.83;7.38;;;;;;;;;;5073621;28;20024;-75
2023/07/30 08:47:50;;;;;;;32.80;8.10;;;;;;;;;;5073348;28;20056;-74
2023/07/30 08:50:16;;;;;;;30.52;7.38;;;;;;;;;;5077715;28;20047;-76
2023/07/30 08:52:43;;;;;;;32.65;7.00;;;;;;;;;;5081931;28;20028;-74
2023/07/30 08:55:10;;;;;;;38.10;7.78;;;;;;;;;;5079698;28;20466;-76
2023/07/30 08:57:36;;;;;;;28.42;6.15;;;;;;;;;;5083195;28;20009;-74
2023/07/30 09:00:10;;;;;;;32.17;6.47;;;;;;;;;;5089113;28;20046;-72
2023/07/30 09:02:41;;;;;;;38.88;6.65;;;;;;;;;;5094745;28;20084;-76
2023/07/30 09:05:08;;;;;;;22.60;6.05;;;;;;;;;;5094530;28;20044;-75
2023/07/30 09:07:34;;;;;;;31.05;7.07;;;;;;;;;;5091957;28;20071;-73
2023/07/30 09:09:59;;;;;;;27.67;5.35;;;;;;;;;;5073174;28;20033;-72
2023/07/30 09:12:33;;;;;;;20.77;5.75;;;;;;;;;;5069738;28;20031;-73
2023/07/30 09:14:59;;;;;;;25.42;5.88;;;;;;;;;;5071107;28;20020;-73
2023/07/30 09:17:25;;;;;;;27.80;5.13;;;;;;;;;;5070791;28;20040;-72
2023/07/30 09:19:52;;;;;;;26.73;5.80;;;;;;;;;;5070335;28;20037;-72
2023/07/30 09:22:38;;;;;;;37.95;6.65;;;;;;;;;;5069767;28;20059;-71
2023/07/30 09:25:06;;;;;;;25.42;5.35;;;;;;;;;;5070563;28;20053;-72
2023/07/30 09:27:32;;;;;;;23.17;4.78;;;;;;;;;;5070163;28;20020;-72
2023/07/30 09:29:59;;;;;;;30.95;5.45;;;;;;;;;;5070471;28;20389;-72
2023/07/30 09:32:29;;;;;;;30.08;5.35;;;;;;;;;;5069024;28;20031;-73
2023/07/30 09:34:56;;;;;;;30.58;5.65;;;;;;;;;;5070094;28;20048;-72
2023/07/30 09:37:22;;;;;;;29.42;5.35;;;;;;;;;;5069834;28;20056;-72
2023/07/30 09:39:48;;;;;;;32.50;5.97;;;;;;;;;;5072500;28;20032;-73
2023/07/30 09:42:14;;;;;;;21.77;5.47;;;;;;;;;;5073839;28;20036;-75
2023/07/30 09:44:40;;;;;;;31.25;6.13;;;;;;;;;;5072157;28;20380;-74
2023/07/30 09:47:10;;;;;;;34.05;6.35;;;;;;;;;;5073515;28;20393;-74
2023/07/30 09:49:39;;;;;;;39.97;7.18;;;;;;;;;;5073379;28;20031;-74
2023/07/30 09:52:06;;;;;;;25.33;5.55;;;;;;;;;;5073140;28;20071;-73
2023/07/30 09:54:32;;;;;;;27.35;5.57;;;;;;;;;;5073476;28;20020;-73
2023/07/30 09:56:59;;;;;;;35.25;7.13;;;;;;;;;;5073886;28;20016;-73
2023/07/30 09:59:25;;;;;;;24.48;5.38;;;;;;;;;;5075860;28;20036;-73
2023/07/30 10:01:55;;;;;;;32.38;5.97;;;;;;;;;;5075139;28;20040;-72
2023/07/30 10:04:22;;;;;;;33.30;5.95;;;;;;;;;;5073909;28;20024;-73
2023/07/30 10:06:57;;;;;;;33.22;7.00;;;;;;;;;;5074133;28;20099;-72
2023/07/30 10:09:23;;;;;;;;;;;;;;;;;;5072700;28;20406;-73
2023/07/30 10:11:50;;;;;;;23.73;6.22;;;;;;;;;;5072073;28;20278;-73
2023/07/30 10:14:18;;;;;;;28.75;6.30;;;;;;;;;;5072917;28;20109;-74
2023/07/30 10:16:50;;;;;;;35.38;6.55;;;;;;;;;;5073014;28;20445;-74
2023/07/30 10:19:18;;;;;;;30.38;7.13;;;;;;;;;;5073677;28;20029;-72
2023/07/30 10:21:44;;;;;;;35.40;9.50;;;;;;;;;;5074016;28;20475;-72
2023/07/30 10:24:10;;;;;;;21.60;5.80;;;;;;;;;;5071742;28;20036;-73
2023/07/30 10:26:37;;;;;;;22.65;5.53;;;;;;;;;;5072812;28;20025;-73
2023/07/30 10:29:12;;;;;;;30.52;9.13;;;;;;;;;;5072776;28;20033;-74
2023/07/30 10:31:42;;;;;;;37.17;6.57;;;;;;;;;;5072802;28;20058;-73
2023/07/30 10:34:09;;;;;;;26.40;5.20;;;;;;;;;;5072487;28;20020;-72
2023/07/30 10:36:46;;;;;;;22.83;4.93;;;;;;;;;;5073328;28;20012;-72
2023/07/30 10:39:22;;;;;;;23.38;6.03;;;;;;;;;;5073372;28;20443;-72
2023/07/30 10:41:51;;;;;;;26.30;5.20;;;;;;;;;;5072425;28;20090;-72
2023/07/30 10:44:28;;;;;;;21.52;5.18;;;;;;;;;;5073215;28;20025;-72
2023/07/30 10:46:55;;;;;;;22.52;5.10;;;;;;;;;;5075810;28;20424;-71
2023/07/30 10:49:21;;;;;;;38.65;5.53;;;;;;;;;;5075459;28;20025;-74
2023/07/30 10:51:47;;;;;;;19.20;5.10;;;;;;;;;;5073570;28;20393;-72
2023/07/30 10:54:13;;;;;;;29.65;6.07;;;;;;;;;;5073965;28;20027;-72
2023/07/30 10:56:40;;;;;;;25.77;5.40;;;;;;;;;;5073913;28;20096;-72
2023/07/30 10:59:07;;;;;;;21.77;4.28;;;;;;;;;;5075272;28;20085;-73
2023/07/30 11:01:36;;;;;;;15.75;3.60;;;;;;;;;;5075679;28;20017;-72
2023/07/30 11:04:05;;;;;;;23.20;4.00;;;;;;;;;;5073796;28;20466;-71
2023/07/30 11:06:31;;;;;;;17.05;3.47;;;;;;;;;;5074716;28;20028;-73
2023/07/30 11:08:57;;;;;;;17.92;3.83;;;;;;;;;;5073230;28;20028;-72
2023/07/30 11:11:25;;;;;;;22.05;3.47;;;;;;;;;;5074992;28;20028;-73
2023/07/30 11:13:51;;;;;;;20.27;3.90;;;;;;;;;;5074404;28;20013;-73
2023/07/30 11:16:17;;;;;;;18.63;3.20;;;;;;;;;;5074521;28;20047;-72
2023/07/30 11:18:44;;;;;;;17.23;2.97;;;;;;;;;;5075495;28;20076;-72
2023/07/30 11:21:11;;;;;;;15.68;2.88;;;;;;;;;;5079925;28;20044;-71
2023/07/30 11:23:38;;;;;;;27.05;3.20;;;;;;;;;;5073726;28;20216;-72
2023/07/30 11:26:05;;;;;;;15.90;3.03;;;;;;;;;;5074193;28;20021;-73
2023/07/30 11:28:32;;;;;;;10.48;2.40;;;;;;;;;;5072803;28;20434;-72
2023/07/30 11:31:08;;;;;;;17.02;3.08;;;;;;;;;;5072428;28;20036;-72
2023/07/30 11:33:35;;;;;;;14.63;2.90;;;;;;;;;;5072259;28;20028;-72
2023/07/30 11:36:02;;;;;;;16.83;3.70;;;;;;;;;;5072766;28;20020;-72
2023/07/30 11:38:28;;;;;;;14.52;3.50;;;;;;;;;;5072453;28;20111;-73
2023/07/30 11:40:55;;;;;;;19.30;2.60;;;;;;;;;;5072547;28;20032;-73
2023/07/30 11:43:22;;;;;;;14.20;3.13;;;;;;;;;;5072237;28;20029;-71
2023/07/30 11:45:48;;;;;;;17.05;3.33;;;;;;;;;;5072389;28;20060;-73
2023/07/30 11:48:14;;;;;;;11.15;2.88;;;;;;;;;;5072356;28;20027;-73
2023/07/30 11:50:50;;;;;;;14.30;3.17;;;;;;;;;;5072313;28;20036;-73
2023/07/30 11:53:17;;;;;;;15.68;2.95;;;;;;;;;;5072196;28;20027;-72
2023/07/30 11:55:44;;;;;;;16.98;3.03;;;;;;;;;;5072695;28;20016;-73
2023/07/30 11:58:10;;;;;;;17.92;3.10;;;;;;;;;;5074027;28;20518;-73
2023/07/30 12:00:37;;;;;;;13.20;2.95;;;;;;;;;;5074702;28;20616;-72
2023/07/30 12:03:04;;;;;;;12.50;2.45;;;;;;;;;;5071878;28;20025;-71
2023/07/30 12:05:34;;;;;;;11.15;2.78;;;;;;;;;;5072329;28;20056;-72
2023/07/30 12:08:02;;;;;;;10.15;2.78;;;;;;;;;;5072293;28;20023;-72
2023/07/30 12:10:28;;;;;;;15.77;3.20;;;;;;;;;;5072196;28;20021;-72
2023/07/30 12:12:54;;;;;;;16.05;2.90;;;;;;;;;;5072116;28;20478;-72
2023/07/30 12:15:22;;;;;;;15.55;2.97;;;;;;;;;;5079697;28;20051;-71
2023/07/30 12:17:48;;;;;;;13.38;2.75;;;;;;;;;;5078632;28;20102;-72
2023/07/30 12:20:14;;;;;;;14.98;3.65;;;;;;;;;;5073977;28;20062;-72
2023/07/30 12:22:42;;;;;;;14.20;2.85;;;;;;;;;;5072569;28;20490;-73
2023/07/30 12:25:09;;;;;;;16.48;3.70;;;;;;;;;;5073085;28;20035;-74
2023/07/30 12:27:35;;;;;;;18.30;3.25;;;;;;;;;;5072060;28;20036;-73
2023/07/30 12:30:01;;;;;;;15.20;2.85;;;;;;;;;;5071119;28;20048;-73
2023/07/30 12:32:29;;;;;;;12.15;3.00;;;;;;;;;;5070059;28;20139;-73
2023/07/30 12:34:55;;;;;;;11.70;3.20;;;;;;;;;;5072343;28;20020;-72
2023/07/30 12:37:21;;;;;;;14.20;3.20;;;;;;;;;;5072453;28;20021;-74
2023/07/30 12:39:47;;;;;;;19.92;4.50;;;;;;;;;;5072725;28;20466;-73
2023/07/30 12:42:13;;;;;;;11.73;3.15;;;;;;;;;;5072004;28;20063;-73
2023/07/30 12:44:39;;;;;;;19.70;3.50;;;;;;;;;;5073034;28;20345;-71
2023/07/30 12:47:05;;;;;;;24.50;3.85;;;;;;;;;;5071462;28;20382;-74
2023/07/30 12:49:31;;;;;;;17.38;3.58;;;;;;;;;;5072676;28;20036;-74
2023/07/30 12:51:57;;;;;;;18.42;4.30;;;;;;;;;;5071928;28;20024;-73
2023/07/30 12:54:23;;;;;;;19.48;3.42;;;;;;;;;;5072464;28;20028;-74
2023/07/30 12:56:49;;;;;;;18.60;3.92;;;;;;;;;;5071298;28;20040;-73
2023/07/30 12:59:15;;;;;;;14.05;3.70;;;;;;;;;;5073758;28;20032;-72
2023/07/30 13:01:41;;;;;;;17.90;3.95;;;;;;;;;;5072366;28;20025;-73
2023/07/30 13:04:07;;;;;;;20.35;4.03;;;;;;;;;;5071931;28;20474;-72
2023/07/30 13:06:33;;;;;;;9.30;3.38;;;;;;;;;;5072793;28;20103;-73
2023/07/30 13:08:59;;;;;;;18.30;4.65;;;;;;;;;;5072341;28;20037;-72
2023/07/30 13:11:25;;;;;;;16.50;4.32;;;;;;;;;;5072687;28;20379;-73
2023/07/30 13:13:51;;;;;;;11.98;3.10;;;;;;;;;;5074636;28;20029;-73
2023/07/30 13:16:17;;;;;;;22.10;3.45;;;;;;;;;;5077091;28;20020;-74
2023/07/30 13:18:43;;;;;;;15.93;2.97;;;;;;;;;;5076619;28;20021;-74
2023/07/30 13:21:09;;;;;;;14.82;2.58;;;;;;;;;;5075670;28;20024;-73
2023/07/30 13:23:35;;;;;;;15.38;2.97;;;;;;;;;;5075902;28;20089;-74
2023/07/30 13:26:02;;;;;;;14.18;3.35;;;;;;;;;;5076367;28;20035;-74
2023/07/30 13:28:29;;;;;;;12.07;2.67;;;;;;;;;;5076770;28;20108;-73
2023/07/30 13:30:56;;;;;;;14.80;2.65;;;;;;;;;;5075038;28;20025;-73
2023/07/30 13:33:22;;;;;;;10.43;2.65;;;;;;;;;;5074992;28;20020;-73
2023/07/30 13:35:48;;;;;;;8.60;2.38;;;;;;;;;;5075766;28;20025;-74
2023/07/30 13:38:14;;;;;;;13.43;3.13;;;;;;;;;;5075557;28;20113;-72
2023/07/30 13:40:40;;;;;;;8.98;2.40;;;;;;;;;;5074883;28;20032;-74
2023/07/30 13:43:06;;;;;;;10.77;2.42;;;;;;;;;;5072659;28;20043;-75
2023/07/30 13:45:32;;;;;;;11.55;4.32;;;;;;;;;;5074751;28;20028;-72
2023/07/30 13:47:58;;;;;;;13.65;2.90;;;;;;;;;;5075356;28;20185;-73
2023/07/30 13:50:24;;;;;;;10.60;2.90;;;;;;;;;;5074995;28;20032;-71
2023/07/30 13:52:50;;;;;;;9.52;2.40;;;;;;;;;;5074013;28;20021;-73
2023/07/30 13:55:16;;;;;;;13.45;2.60;;;;;;;;;;5075136;28;20024;-72
2023/07/30 13:57:43;;;;;;;12.93;2.50;;;;;;;;;;5075074;28;20022;-73
2023/07/30 14:00:09;;;;;;;9.30;2.05;;;;;;;;;;5075254;28;20486;-74
2023/07/30 14:02:35;;;;;;;11.57;3.05;;;;;;;;;;5074369;28;20028;-72
2023/07/30 14:05:01;;;;;;;7.78;3.00;;;;;;;;;;5075500;28;20045;-71
2023/07/30 14:07:27;;;;;;;8.82;2.63;;;;;;;;;;5074028;28;20024;-73
2023/07/30 14:09:53;;;;;;;12.93;2.53;;;;;;;;;;5077188;28;20078;-72
2023/07/30 14:12:19;;;;;;;8.57;1.90;;;;;;;;;;5074632;28;20573;-72
2023/07/30 14:14:44;;;;;;;6.50;1.90;;;;;;;;;;5074358;28;20131;-72
2023/07/30 14:17:10;;;;;;;11.00;2.17;;;;;;;;;;5074446;28;20020;-73
2023/07/30 14:19:36;;;;;;;7.55;2.17;;;;;;;;;;5074062;28;20523;-73
2023/07/30 14:22:02;;;;;;;7.47;1.98;;;;;;;;;;5072527;28;20042;-71
2023/07/30 14:24:29;;;;;;;7.63;2.00;;;;;;;;;;5074624;22;20103;-72